sensor_id;sensor_type;location;lat;lon;timestamp;pressure;altitude;pressure_sealevel;temperature;humidity
25869;BME280;13688;53.154;18.136;2022-11-09T00:00:20;100678.07;;;6.40;100.00
25869;BME280;13688;53.154;18.136;2022-11-09T00:05:43;100691.58;;;6.23;100.00
25869;BME280;13688;53.154;18.136;2022-11-09T00:11:13;100691.08;;;6.16;100.00
25869;BME280;13688;53.154;18.136;2022-11-09T00:16:35;100690.92;;;6.19;100.00
25869;BME280;13688;53.154;18.136;2022-11-09T00:21:58;100682.60;;;6.10;100.00
25869;BME280;13688;53.154;18.136;2022-11-09T00:27:20;100679.33;;;6.05;100.00
25869;BME280;13688;53.154;18.136;2022-11-09T00:32:43;100675.06;;;6.16;100.00
25869;BME280;13688;53.154;18.136;2022-11-09T00:38:05;100684.78;;;6.17;100.00
25869;BME280;13688;53.154;18.136;2022-11-09T00:43:27;100681.45;;;6.14;100.00
25869;BME280;13688;53.154;18.136;2022-11-09T00:48:52;100682.00;;;6.05;100.00
25869;BME280;13688;53.154;18.136;2022-11-09T00:54:15;100681.50;;;5.98;100.00
25869;BME280;13688;53.154;18.136;2022-11-09T00:59:37;100679.84;;;6.11;100.00
25869;BME280;13688;53.154;18.136;2022-11-09T01:05:00;100678.52;;;6.18;100.00
25869;BME280;13688;53.154;18.136;2022-11-09T01:10:23;100681.19;;;6.18;100.00
25869;BME280;13688;53.154;18.136;2022-11-09T01:15:51;100674.20;;;6.16;100.00
25869;BME280;13688;53.154;18.136;2022-11-09T01:21:15;100675.16;;;6.15;100.00
25869;BME280;13688;53.154;18.136;2022-11-09T01:26:37;100662.00;;;6.12;100.00
25869;BME280;13688;53.154;18.136;2022-11-09T01:32:00;100665.23;;;6.17;100.00
25869;BME280;13688;53.154;18.136;2022-11-09T01:37:23;100664.88;;;6.23;100.00
25869;BME280;13688;53.154;18.136;2022-11-09T01:42:45;100672.03;;;6.22;100.00
25869;BME280;13688;53.154;18.136;2022-11-09T01:48:18;100668.51;;;6.36;100.00
25869;BME280;13688;53.154;18.136;2022-11-09T01:53:33;100670.33;;;6.36;100.00
25869;BME280;13688;53.154;18.136;2022-11-09T01:59:02;100684.47;;;6.52;100.00
25869;BME280;13688;53.154;18.136;2022-11-09T02:04:38;100658.98;;;6.46;100.00
25869;BME280;13688;53.154;18.136;2022-11-09T02:10:02;100644.59;;;6.49;100.00
25869;BME280;13688;53.154;18.136;2022-11-09T02:15:30;100640.69;;;6.40;100.00
25869;BME280;13688;53.154;18.136;2022-11-09T02:20:56;100630.55;;;6.45;100.00
25869;BME280;13688;53.154;18.136;2022-11-09T02:26:31;100611.11;;;6.43;100.00
25869;BME280;13688;53.154;18.136;2022-11-09T02:32:01;100604.91;;;6.43;100.00
25869;BME280;13688;53.154;18.136;2022-11-09T02:37:34;100607.76;;;6.54;100.00
25869;BME280;13688;53.154;18.136;2022-11-09T02:43:01;100624.56;;;6.42;100.00
25869;BME280;13688;53.154;18.136;2022-11-09T02:48:25;100606.22;;;6.64;100.00
25869;BME280;13688;53.154;18.136;2022-11-09T02:53:47;100609.20;;;6.59;100.00
25869;BME280;13688;53.154;18.136;2022-11-09T02:59:09;100616.73;;;6.53;100.00
25869;BME280;13688;53.154;18.136;2022-11-09T03:04:32;100635.73;;;6.48;100.00
25869;BME280;13688;53.154;18.136;2022-11-09T03:09:54;100640.87;;;6.51;100.00
25869;BME280;13688;53.154;18.136;2022-11-09T03:15:17;100647.44;;;6.46;100.00
25869;BME280;13688;53.154;18.136;2022-11-09T03:20:40;100635.61;;;6.36;100.00
25869;BME280;13688;53.154;18.136;2022-11-09T03:26:02;100635.41;;;6.24;100.00
25869;BME280;13688;53.154;18.136;2022-11-09T03:31:24;100635.41;;;6.24;100.00
25869;BME280;13688;53.154;18.136;2022-11-09T03:36:48;100631.39;;;6.17;100.00
25869;BME280;13688;53.154;18.136;2022-11-09T03:42:10;100637.38;;;6.07;100.00
25869;BME280;13688;53.154;18.136;2022-11-09T03:47:32;100617.68;;;6.09;100.00
25869;BME280;13688;53.154;18.136;2022-11-09T03:52:56;100616.16;;;6.34;100.00
25869;BME280;13688;53.154;18.136;2022-11-09T03:58:19;100623.50;;;6.44;100.00
25869;BME280;13688;53.154;18.136;2022-11-09T04:03:42;100625.61;;;6.39;100.00
25869;BME280;13688;53.154;18.136;2022-11-09T04:09:04;100638.30;;;6.50;100.00
25869;BME280;13688;53.154;18.136;2022-11-09T04:14:26;100624.55;;;6.70;100.00
25869;BME280;13688;53.154;18.136;2022-11-09T04:19:48;100630.75;;;6.71;100.00
25869;BME280;13688;53.154;18.136;2022-11-09T04:25:11;100622.84;;;6.69;100.00
25869;BME280;13688;53.154;18.136;2022-11-09T04:30:35;100627.02;;;6.73;100.00
25869;BME280;13688;53.154;18.136;2022-11-09T04:36:02;100610.98;;;6.73;100.00
25869;BME280;13688;53.154;18.136;2022-11-09T04:41:24;100613.77;;;6.72;100.00
25869;BME280;13688;53.154;18.136;2022-11-09T04:46:48;100619.58;;;6.78;100.00
25869;BME280;13688;53.154;18.136;2022-11-09T04:52:10;100603.27;;;6.69;100.00
25869;BME280;13688;53.154;18.136;2022-11-09T04:57:33;100611.02;;;6.59;100.00
25869;BME280;13688;53.154;18.136;2022-11-09T05:02:58;100612.25;;;6.53;100.00
25869;BME280;13688;53.154;18.136;2022-11-09T05:08:19;100588.88;;;6.43;100.00
25869;BME280;13688;53.154;18.136;2022-11-09T05:13:42;100581.17;;;6.38;100.00
25869;BME280;13688;53.154;18.136;2022-11-09T05:19:04;100585.56;;;6.39;100.00
25869;BME280;13688;53.154;18.136;2022-11-09T05:24:26;100600.32;;;6.45;100.00
25869;BME280;13688;53.154;18.136;2022-11-09T05:29:49;100599.67;;;6.41;100.00
25869;BME280;13688;53.154;18.136;2022-11-09T05:35:12;100612.83;;;6.30;100.00
25869;BME280;13688;53.154;18.136;2022-11-09T05:40:34;100610.03;;;6.17;100.00
25869;BME280;13688;53.154;18.136;2022-11-09T05:45:56;100606.60;;;6.01;100.00
25869;BME280;13688;53.154;18.136;2022-11-09T05:51:19;100595.43;;;5.94;100.00
25869;BME280;13688;53.154;18.136;2022-11-09T05:56:42;100612.59;;;5.90;100.00
25869;BME280;13688;53.154;18.136;2022-11-09T06:02:04;100612.81;;;5.86;100.00
25869;BME280;13688;53.154;18.136;2022-11-09T06:07:26;100617.39;;;5.84;100.00
25869;BME280;13688;53.154;18.136;2022-11-09T06:12:49;100619.56;;;5.77;100.00
25869;BME280;13688;53.154;18.136;2022-11-09T06:18:12;100615.05;;;5.63;100.00
25869;BME280;13688;53.154;18.136;2022-11-09T06:23:35;100615.41;;;5.57;100.00
25869;BME280;13688;53.154;18.136;2022-11-09T06:28:57;100613.24;;;5.64;100.00
25869;BME280;13688;53.154;18.136;2022-11-09T06:34:20;100608.48;;;5.69;100.00
25869;BME280;13688;53.154;18.136;2022-11-09T06:39:42;100619.15;;;5.69;100.00
25869;BME280;13688;53.154;18.136;2022-11-09T06:45:05;100611.08;;;5.70;100.00
25869;BME280;13688;53.154;18.136;2022-11-09T06:50:29;100612.39;;;5.63;100.00
25869;BME280;13688;53.154;18.136;2022-11-09T06:55:51;100621.59;;;5.58;100.00
25869;BME280;13688;53.154;18.136;2022-11-09T07:01:17;100618.45;;;5.51;100.00
25869;BME280;13688;53.154;18.136;2022-11-09T07:06:44;100621.02;;;5.53;100.00
25869;BME280;13688;53.154;18.136;2022-11-09T07:12:06;100625.21;;;5.57;100.00
25869;BME280;13688;53.154;18.136;2022-11-09T07:17:29;100615.15;;;5.62;100.00
25869;BME280;13688;53.154;18.136;2022-11-09T07:22:53;100627.25;;;5.67;100.00
25869;BME280;13688;53.154;18.136;2022-11-09T07:28:16;100623.28;;;5.74;100.00
25869;BME280;13688;53.154;18.136;2022-11-09T07:33:39;100626.45;;;5.81;100.00
25869;BME280;13688;53.154;18.136;2022-11-09T07:39:02;100634.86;;;5.89;100.00
25869;BME280;13688;53.154;18.136;2022-11-09T07:44:25;100638.73;;;5.99;100.00
25869;BME280;13688;53.154;18.136;2022-11-09T07:49:47;100654.00;;;6.26;100.00
25869;BME280;13688;53.154;18.136;2022-11-09T07:55:10;100652.88;;;6.44;100.00
25869;BME280;13688;53.154;18.136;2022-11-09T08:00:34;100633.14;;;6.61;100.00
25869;BME280;13688;53.154;18.136;2022-11-09T08:05:57;100643.80;;;6.75;100.00
25869;BME280;13688;53.154;18.136;2022-11-09T08:11:22;100635.14;;;6.86;100.00
25869;BME280;13688;53.154;18.136;2022-11-09T08:16:44;100640.34;;;7.02;100.00
25869;BME280;13688;53.154;18.136;2022-11-09T08:22:06;100615.48;;;7.14;100.00
25869;BME280;13688;53.154;18.136;2022-11-09T08:27:29;100628.07;;;7.26;100.00
25869;BME280;13688;53.154;18.136;2022-11-09T08:32:52;100629.47;;;7.32;100.00
25869;BME280;13688;53.154;18.136;2022-11-09T08:38:15;100628.08;;;7.53;100.00
25869;BME280;13688;53.154;18.136;2022-11-09T08:43:38;100619.00;;;7.68;100.00
25869;BME280;13688;53.154;18.136;2022-11-09T08:49:00;100626.42;;;7.90;100.00
25869;BME280;13688;53.154;18.136;2022-11-09T08:54:24;100614.45;;;8.09;99.62
25869;BME280;13688;53.154;18.136;2022-11-09T08:59:46;100622.93;;;8.28;96.84
25869;BME280;13688;53.154;18.136;2022-11-09T09:05:09;100629.52;;;8.49;94.30
25869;BME280;13688;53.154;18.136;2022-11-09T09:10:32;100634.72;;;8.76;92.30
25869;BME280;13688;53.154;18.136;2022-11-09T09:15:55;100640.59;;;8.94;90.03
25869;BME280;13688;53.154;18.136;2022-11-09T09:21:24;100647.84;;;9.17;87.87
25869;BME280;13688;53.154;18.136;2022-11-09T09:26:46;100640.47;;;9.32;85.82
25869;BME280;13688;53.154;18.136;2022-11-09T09:32:09;100653.83;;;9.45;84.17
25869;BME280;13688;53.154;18.136;2022-11-09T09:37:32;100645.86;;;9.56;83.04
25869;BME280;13688;53.154;18.136;2022-11-09T09:42:55;100647.09;;;9.63;82.39
25869;BME280;13688;53.154;18.136;2022-11-09T09:48:31;100653.23;;;9.65;81.86
25869;BME280;13688;53.154;18.136;2022-11-09T09:54:15;100648.02;;;9.75;81.61
25869;BME280;13688;53.154;18.136;2022-11-09T09:59:48;100651.73;;;9.85;81.27
25869;BME280;13688;53.154;18.136;2022-11-09T10:05:14;100658.23;;;10.40;80.83
25869;BME280;13688;53.154;18.136;2022-11-09T10:11:30;100643.81;;;11.31;76.68
25869;BME280;13688;53.154;18.136;2022-11-09T10:28:21;100621.30;;;11.64;72.47
25869;BME280;13688;53.154;18.136;2022-11-09T10:33:56;100633.17;;;11.18;73.45
25869;BME280;13688;53.154;18.136;2022-11-09T10:39:20;100637.00;;;11.04;74.66
25869;BME280;13688;53.154;18.136;2022-11-09T10:44:44;100642.61;;;11.12;74.94
25869;BME280;13688;53.154;18.136;2022-11-09T10:50:20;100622.41;;;11.18;74.17
25869;BME280;13688;53.154;18.136;2022-11-09T10:56:12;100617.97;;;11.28;73.74
25869;BME280;13688;53.154;18.136;2022-11-09T11:01:39;100622.37;;;11.40;73.71
25869;BME280;13688;53.154;18.136;2022-11-09T11:07:12;100618.69;;;11.41;73.15
25869;BME280;13688;53.154;18.136;2022-11-09T11:12:30;100624.41;;;11.48;72.06
25869;BME280;13688;53.154;18.136;2022-11-09T11:18:02;100642.03;;;11.52;71.72
25869;BME280;13688;53.154;18.136;2022-11-09T11:23:33;100629.77;;;11.59;71.48
25869;BME280;13688;53.154;18.136;2022-11-09T11:29:03;100629.96;;;11.67;71.32
25869;BME280;13688;53.154;18.136;2022-11-09T11:34:26;100647.01;;;11.68;71.41
25869;BME280;13688;53.154;18.136;2022-11-09T11:40:02;100640.28;;;11.62;71.46
25869;BME280;13688;53.154;18.136;2022-11-09T11:45:28;100647.77;;;11.59;71.55
25869;BME280;13688;53.154;18.136;2022-11-09T11:51:12;100655.00;;;11.58;71.65
25869;BME280;13688;53.154;18.136;2022-11-09T11:56:50;100653.16;;;11.59;71.81
25869;BME280;13688;53.154;18.136;2022-11-09T12:14:16;100653.78;;;11.51;72.26
25869;BME280;13688;53.154;18.136;2022-11-09T12:20:20;100655.86;;;11.47;72.23
25869;BME280;13688;53.154;18.136;2022-11-09T12:37:34;100641.94;;;11.42;72.68
25869;BME280;13688;53.154;18.136;2022-11-09T12:48:36;100627.75;;;11.40;72.66
25869;BME280;13688;53.154;18.136;2022-11-09T12:53:59;100628.61;;;11.41;72.47
25869;BME280;13688;53.154;18.136;2022-11-09T12:59:44;100638.52;;;11.40;72.71
25869;BME280;13688;53.154;18.136;2022-11-09T13:11:09;100647.45;;;11.41;72.75
25869;BME280;13688;53.154;18.136;2022-11-09T13:16:38;100632.52;;;11.37;73.00
25869;BME280;13688;53.154;18.136;2022-11-09T13:22:01;100623.72;;;11.35;73.15
25869;BME280;13688;53.154;18.136;2022-11-09T13:27:49;100633.63;;;11.34;73.23
25869;BME280;13688;53.154;18.136;2022-11-09T13:38:39;100626.80;;;11.30;73.43
25869;BME280;13688;53.154;18.136;2022-11-09T13:44:22;100626.80;;;11.30;73.44
25869;BME280;13688;53.154;18.136;2022-11-09T13:49:48;100620.80;;;11.27;73.63
25869;BME280;13688;53.154;18.136;2022-11-09T13:55:23;100630.12;;;11.23;73.88
25869;BME280;13688;53.154;18.136;2022-11-09T14:00:48;100641.73;;;11.23;73.98
25869;BME280;13688;53.154;18.136;2022-11-09T14:06:11;100652.27;;;11.15;74.74
25869;BME280;13688;53.154;18.136;2022-11-09T14:11:57;100650.34;;;10.95;76.34
25869;BME280;13688;53.154;18.136;2022-11-09T14:17:32;100673.45;;;10.75;78.02
25869;BME280;13688;53.154;18.136;2022-11-09T14:22:56;100665.38;;;10.64;79.11
25869;BME280;13688;53.154;18.136;2022-11-09T14:28:21;100657.05;;;10.67;79.60
25869;BME280;13688;53.154;18.136;2022-11-09T14:33:56;100656.80;;;10.70;79.62
25869;BME280;13688;53.154;18.136;2022-11-09T14:39:30;100656.93;;;10.68;79.72
25869;BME280;13688;53.154;18.136;2022-11-09T14:44:54;100664.02;;;10.69;79.71
25869;BME280;13688;53.154;18.136;2022-11-09T14:50:28;100647.66;;;10.72;79.69
25869;BME280;13688;53.154;18.136;2022-11-09T14:55:49;100602.69;;;10.52;79.21
25869;BME280;13688;53.154;18.136;2022-11-09T15:06:46;100658.16;;;10.75;79.40
25869;BME280;13688;53.154;18.136;2022-11-09T15:12:16;100667.34;;;10.73;79.32
25869;BME280;13688;53.154;18.136;2022-11-09T15:17:43;100672.72;;;10.73;79.56
25869;BME280;13688;53.154;18.136;2022-11-09T15:28:55;100674.77;;;10.69;79.75
25869;BME280;13688;53.154;18.136;2022-11-09T15:34:24;100679.55;;;10.66;80.09
25869;BME280;13688;53.154;18.136;2022-11-09T15:39:48;100680.39;;;10.55;80.66
25869;BME280;13688;53.154;18.136;2022-11-09T15:45:13;100689.80;;;10.60;80.99
25869;BME280;13688;53.154;18.136;2022-11-09T15:50:35;100689.58;;;10.64;80.93
25869;BME280;13688;53.154;18.136;2022-11-09T15:55:58;100689.70;;;10.62;80.99
25869;BME280;13688;53.154;18.136;2022-11-09T16:01:21;100672.08;;;10.58;81.39
25869;BME280;13688;53.154;18.136;2022-11-09T16:06:45;100663.63;;;10.51;81.78
25869;BME280;13688;53.154;18.136;2022-11-09T16:12:08;100663.61;;;10.40;82.38
25869;BME280;13688;53.154;18.136;2022-11-09T16:17:30;100675.20;;;10.29;82.93
25869;BME280;13688;53.154;18.136;2022-11-09T16:22:53;100666.56;;;10.13;83.92
25869;BME280;13688;53.154;18.136;2022-11-09T16:28:17;100671.75;;;9.92;85.06
25869;BME280;13688;53.154;18.136;2022-11-09T16:33:41;100673.05;;;9.75;86.59
25869;BME280;13688;53.154;18.136;2022-11-09T16:39:06;100673.56;;;9.57;88.36
25869;BME280;13688;53.154;18.136;2022-11-09T16:44:30;100670.79;;;9.45;90.37
25869;BME280;13688;53.154;18.136;2022-11-09T16:49:54;100659.99;;;9.34;92.27
25869;BME280;13688;53.154;18.136;2022-11-09T16:55:17;100672.38;;;9.24;93.85
25869;BME280;13688;53.154;18.136;2022-11-09T17:00:43;100669.73;;;9.11;95.11
25869;BME280;13688;53.154;18.136;2022-11-09T17:06:08;100687.03;;;8.95;96.26
25869;BME280;13688;53.154;18.136;2022-11-09T17:11:30;100686.51;;;8.77;97.92
25869;BME280;13688;53.154;18.136;2022-11-09T17:16:53;100688.98;;;8.67;100.00
25869;BME280;13688;53.154;18.136;2022-11-09T17:22:16;100704.30;;;8.78;100.00
25869;BME280;13688;53.154;18.136;2022-11-09T17:27:38;100701.61;;;9.03;100.00
25869;BME280;13688;53.154;18.136;2022-11-09T17:33:01;100692.16;;;9.10;100.00
25869;BME280;13688;53.154;18.136;2022-11-09T17:38:24;100686.48;;;9.02;98.05
25869;BME280;13688;53.154;18.136;2022-11-09T17:43:47;100691.22;;;8.86;98.09
25869;BME280;13688;53.154;18.136;2022-11-09T17:49:10;100677.19;;;8.82;98.83
25869;BME280;13688;53.154;18.136;2022-11-09T17:54:32;100673.98;;;8.65;99.04
25869;BME280;13688;53.154;18.136;2022-11-09T17:59:55;100681.17;;;8.51;100.00
25869;BME280;13688;53.154;18.136;2022-11-09T18:05:19;100682.23;;;8.36;100.00
25869;BME280;13688;53.154;18.136;2022-11-09T18:10:42;100686.20;;;8.43;100.00
25869;BME280;13688;53.154;18.136;2022-11-09T18:16:08;100681.81;;;8.42;100.00
25869;BME280;13688;53.154;18.136;2022-11-09T18:21:33;100691.67;;;8.54;100.00
25869;BME280;13688;53.154;18.136;2022-11-09T18:26:55;100694.36;;;8.42;100.00
25869;BME280;13688;53.154;18.136;2022-11-09T18:32:18;100692.69;;;8.26;100.00
25869;BME280;13688;53.154;18.136;2022-11-09T18:37:41;100692.34;;;8.18;100.00
25869;BME280;13688;53.154;18.136;2022-11-09T18:43:04;100697.13;;;8.00;100.00
25869;BME280;13688;53.154;18.136;2022-11-09T18:48:27;100700.23;;;7.94;100.00
25869;BME280;13688;53.154;18.136;2022-11-09T18:53:51;100691.50;;;7.78;100.00
25869;BME280;13688;53.154;18.136;2022-11-09T18:59:15;100686.72;;;7.83;100.00
25869;BME280;13688;53.154;18.136;2022-11-09T19:04:38;100695.61;;;7.57;100.00
25869;BME280;13688;53.154;18.136;2022-11-09T19:10:11;100694.44;;;7.61;100.00
25869;BME280;13688;53.154;18.136;2022-11-09T19:15:33;100707.16;;;7.57;100.00
25869;BME280;13688;53.154;18.136;2022-11-09T19:20:56;100704.77;;;7.53;100.00
25869;BME280;13688;53.154;18.136;2022-11-09T19:26:18;100707.40;;;7.40;100.00
25869;BME280;13688;53.154;18.136;2022-11-09T19:31:42;100700.38;;;7.25;100.00
25869;BME280;13688;53.154;18.136;2022-11-09T19:37:04;100711.24;;;7.36;100.00
25869;BME280;13688;53.154;18.136;2022-11-09T19:42:27;100723.06;;;7.46;100.00
25869;BME280;13688;53.154;18.136;2022-11-09T19:47:51;100716.77;;;7.33;100.00
25869;BME280;13688;53.154;18.136;2022-11-09T19:53:14;100728.25;;;7.35;100.00
25869;BME280;13688;53.154;18.136;2022-11-09T19:58:38;100721.26;;;7.32;100.00
25869;BME280;13688;53.154;18.136;2022-11-09T20:04:08;100736.28;;;7.35;100.00
25869;BME280;13688;53.154;18.136;2022-11-09T20:09:31;100735.63;;;7.17;100.00
25869;BME280;13688;53.154;18.136;2022-11-09T20:14:53;100741.52;;;7.22;100.00
25869;BME280;13688;53.154;18.136;2022-11-09T20:20:16;100746.02;;;7.22;100.00
25869;BME280;13688;53.154;18.136;2022-11-09T20:25:38;100752.52;;;7.03;100.00
25869;BME280;13688;53.154;18.136;2022-11-09T20:31:06;100745.57;;;6.86;100.00
25869;BME280;13688;53.154;18.136;2022-11-09T20:36:28;100749.94;;;6.73;100.00
25869;BME280;13688;53.154;18.136;2022-11-09T20:41:50;100738.87;;;6.79;100.00
25869;BME280;13688;53.154;18.136;2022-11-09T20:47:13;100738.87;;;6.79;100.00
25869;BME280;13688;53.154;18.136;2022-11-09T20:52:37;100740.00;;;6.75;100.00
25869;BME280;13688;53.154;18.136;2022-11-09T20:58:01;100748.61;;;6.66;100.00
25869;BME280;13688;53.154;18.136;2022-11-09T21:03:28;100737.92;;;6.80;100.00
25869;BME280;13688;53.154;18.136;2022-11-09T21:08:54;100742.67;;;6.75;100.00
25869;BME280;13688;53.154;18.136;2022-11-09T21:14:17;100749.27;;;6.84;100.00
25869;BME280;13688;53.154;18.136;2022-11-09T21:19:39;100748.41;;;6.83;100.00
25869;BME280;13688;53.154;18.136;2022-11-09T21:25:01;100752.14;;;6.81;100.00
25869;BME280;13688;53.154;18.136;2022-11-09T21:30:41;100744.88;;;6.83;100.00
25869;BME280;13688;53.154;18.136;2022-11-09T21:36:06;100747.45;;;6.70;100.00
25869;BME280;13688;53.154;18.136;2022-11-09T21:41:29;100746.11;;;6.63;100.00
25869;BME280;13688;53.154;18.136;2022-11-09T21:46:52;100742.31;;;6.81;100.00
25869;BME280;13688;53.154;18.136;2022-11-09T21:52:14;100735.92;;;6.98;100.00
25869;BME280;13688;53.154;18.136;2022-11-09T21:57:37;100743.84;;;7.00;100.00
25869;BME280;13688;53.154;18.136;2022-11-09T22:03:00;100753.76;;;6.83;100.00
25869;BME280;13688;53.154;18.136;2022-11-09T22:08:23;100755.30;;;6.87;100.00
25869;BME280;13688;53.154;18.136;2022-11-09T22:13:46;100761.39;;;7.04;100.00
25869;BME280;13688;53.154;18.136;2022-11-09T22:19:27;100762.94;;;7.08;100.00
25869;BME280;13688;53.154;18.136;2022-11-09T22:25:07;100770.08;;;6.93;100.00
25869;BME280;13688;53.154;18.136;2022-11-09T22:30:29;100751.95;;;6.70;100.00
25869;BME280;13688;53.154;18.136;2022-11-09T22:36:01;100759.30;;;6.66;100.00
25869;BME280;13688;53.154;18.136;2022-11-09T22:41:20;100760.16;;;6.67;100.00
25869;BME280;13688;53.154;18.136;2022-11-09T22:46:42;100757.48;;;6.67;100.00
25869;BME280;13688;53.154;18.136;2022-11-09T22:52:04;100759.96;;;6.84;100.00
25869;BME280;13688;53.154;18.136;2022-11-09T22:57:26;100766.06;;;6.72;100.00
25869;BME280;13688;53.154;18.136;2022-11-09T23:02:49;100761.88;;;6.68;100.00
25869;BME280;13688;53.154;18.136;2022-11-09T23:08:12;100774.74;;;6.75;100.00
25869;BME280;13688;53.154;18.136;2022-11-09T23:13:35;100774.84;;;6.74;100.00
25869;BME280;13688;53.154;18.136;2022-11-09T23:18:57;100780.73;;;6.65;100.00
25869;BME280;13688;53.154;18.136;2022-11-09T23:24:20;100773.81;;;6.76;100.00
25869;BME280;13688;53.154;18.136;2022-11-09T23:30:00;100768.73;;;6.72;100.00
25869;BME280;13688;53.154;18.136;2022-11-09T23:35:23;100780.58;;;6.68;100.00
25869;BME280;13688;53.154;18.136;2022-11-09T23:40:45;100777.05;;;6.67;100.00
25869;BME280;13688;53.154;18.136;2022-11-09T23:46:10;100781.44;;;6.82;100.00
25869;BME280;13688;53.154;18.136;2022-11-09T23:51:33;100780.61;;;6.96;100.00
25869;BME280;13688;53.154;18.136;2022-11-09T23:56:55;100784.05;;;6.98;100.00
